FDX503 KIND-KIAH
Flight info
| Callsign | FDX503 |
|---|---|
| Flight time | 1h 59m |
| Altitude | 36000 |
| Route | OOM5 PXV J131 LIT EDWAH Q33 SWEUP GESNR2 |
| Aircraft | A306/H-SDE3FGHIRWY/LB1 |
Departure
| Time | 2026-05-04 00:49 |
|---|---|
| Airport | Indianapolis International Airport (KIND) |
Arrival
| Time | 2026-05-04 02:49 |
|---|---|
| Airport | George Bush Intercontinental Airport (KIAH) |
| Time | Latitude | Longitude | Altitude | Speed | Heading |
|---|---|---|---|---|---|
| 2026-05-04 00:09 | 39.71210 | -86.28591 | 807 ft | 0 kts | 314° |
| 2026-05-04 00:35 | 39.71209 | -86.28589 | 807 ft | 2 kts | 314° |
| 2026-05-04 00:36 | 39.71192 | -86.28566 | 806 ft | 4 kts | 318° |
| 2026-05-04 00:36 | 39.71171 | -86.28548 | 806 ft | 4 kts | 351° |
| 2026-05-04 00:36 | 39.71148 | -86.28551 | 805 ft | 4 kts | 33° |
| 2026-05-04 00:36 | 39.71135 | -86.28564 | 805 ft | 1 kts | 44° |
| 2026-05-04 00:37 | 39.71133 | -86.28566 | 805 ft | 0 kts | 44° |
| 2026-05-04 00:39 | 39.71173 | -86.28519 | 805 ft | 13 kts | 43° |
| 2026-05-04 00:39 | 39.71238 | -86.28434 | 804 ft | 13 kts | 46° |
| 2026-05-04 00:40 | 39.71304 | -86.28347 | 802 ft | 14 kts | 45° |
| 2026-05-04 00:40 | 39.71377 | -86.28281 | 802 ft | 12 kts | 9° |
| 2026-05-04 00:40 | 39.71444 | -86.28316 | 803 ft | 9 kts | 326° |
| 2026-05-04 00:40 | 39.71512 | -86.28334 | 804 ft | 14 kts | 9° |
| 2026-05-04 00:41 | 39.71594 | -86.28223 | 803 ft | 22 kts | 60° |
| 2026-05-04 00:41 | 39.71690 | -86.28021 | 805 ft | 30 kts | 46° |
| 2026-05-04 00:41 | 39.71856 | -86.27812 | 808 ft | 35 kts | 45° |
| 2026-05-04 00:41 | 39.72027 | -86.27593 | 803 ft | 34 kts | 45° |
| 2026-05-04 00:42 | 39.72159 | -86.27527 | 800 ft | 14 kts | 326° |
| 2026-05-04 00:42 | 39.72226 | -86.27607 | 798 ft | 15 kts | 310° |
| 2026-05-04 00:42 | 39.72319 | -86.27740 | 798 ft | 25 kts | 315° |
| 2026-05-04 00:42 | 39.72444 | -86.27900 | 796 ft | 25 kts | 316° |
| 2026-05-04 00:43 | 39.72561 | -86.28050 | 799 ft | 21 kts | 315° |
| 2026-05-04 00:43 | 39.72659 | -86.28185 | 800 ft | 19 kts | 314° |
| 2026-05-04 00:43 | 39.72699 | -86.28238 | 802 ft | 0 kts | 314° |
| 2026-05-04 00:45 | 39.72732 | -86.28282 | 802 ft | 14 kts | 314° |
| 2026-05-04 00:45 | 39.72834 | -86.28412 | 802 ft | 25 kts | 315° |
| 2026-05-04 00:45 | 39.72974 | -86.28599 | 801 ft | 33 kts | 313° |
| 2026-05-04 00:46 | 39.73134 | -86.28810 | 800 ft | 33 kts | 319° |
| 2026-05-04 00:46 | 39.73253 | -86.28965 | 800 ft | 16 kts | 309° |
| 2026-05-04 00:46 | 39.73247 | -86.29080 | 802 ft | 12 kts | 231° |
| 2026-05-04 00:46 | 39.73192 | -86.29155 | 802 ft | 11 kts | 224° |
| 2026-05-04 00:47 | 39.73137 | -86.29224 | 802 ft | 12 kts | 224° |
| 2026-05-04 00:47 | 39.73072 | -86.29305 | 801 ft | 14 kts | 223° |
| 2026-05-04 00:47 | 39.73002 | -86.29394 | 801 ft | 15 kts | 224° |
| 2026-05-04 00:47 | 39.72907 | -86.29405 | 797 ft | 16 kts | 144° |
| 2026-05-04 00:48 | 39.72893 | -86.29388 | 797 ft | 1 kts | 135° |
| 2026-05-04 00:48 | 39.72880 | -86.29371 | 796 ft | 6 kts | 133° |
| 2026-05-04 00:48 | 39.72810 | -86.29336 | 795 ft | 16 kts | 186° |
| 2026-05-04 00:48 | 39.72707 | -86.29443 | 793 ft | 25 kts | 224° |
| 2026-05-04 00:49 | 39.72423 | -86.29803 | 786 ft | 91 kts | 224° |
| 2026-05-04 00:49 | 39.71819 | -86.30572 | 772 ft | 150 kts | 225° |
| 2026-05-04 00:49 | 39.70989 | -86.31618 | 1187 ft | 173 kts | 223° |
| 2026-05-04 00:49 | 39.70108 | -86.32753 | 2077 ft | 182 kts | 224° |
| 2026-05-04 00:50 | 39.69199 | -86.34030 | 2653 ft | 207 kts | 226° |
| 2026-05-04 00:50 | 39.68134 | -86.35426 | 3226 ft | 226 kts | 224° |
| 2026-05-04 00:50 | 39.66960 | -86.36838 | 4125 ft | 232 kts | 219° |
| 2026-05-04 00:50 | 39.65572 | -86.37889 | 5336 ft | 233 kts | 210° |
| 2026-05-04 00:51 | 39.64057 | -86.38707 | 6176 ft | 247 kts | 208° |
| 2026-05-04 00:51 | 39.62395 | -86.39520 | 6938 ft | 260 kts | 208° |
| 2026-05-04 00:51 | 39.60658 | -86.40332 | 7848 ft | 268 kts | 207° |
| 2026-05-04 00:51 | 39.58877 | -86.41149 | 8799 ft | 274 kts | 207° |
| 2026-05-04 00:52 | 39.57056 | -86.41984 | 9716 ft | 282 kts | 208° |
| 2026-05-04 00:52 | 39.55817 | -86.42553 | 10248 ft | 288 kts | 208° |
| 2026-05-04 00:52 | 39.53858 | -86.43457 | 10698 ft | 310 kts | 207° |
| 2026-05-04 00:52 | 39.51037 | -86.44750 | 11151 ft | 338 kts | 206° |
| 2026-05-04 00:53 | 39.48756 | -86.45787 | 11469 ft | 356 kts | 206° |
| 2026-05-04 00:53 | 39.47151 | -86.46515 | 11690 ft | 368 kts | 206° |
| 2026-05-04 00:53 | 39.44681 | -86.47633 | 12157 ft | 380 kts | 206° |
| 2026-05-04 00:53 | 39.42158 | -86.48771 | 12772 ft | 387 kts | 206° |
| 2026-05-04 00:54 | 39.39623 | -86.49916 | 13426 ft | 393 kts | 206° |
| 2026-05-04 00:54 | 39.37029 | -86.51088 | 14090 ft | 397 kts | 206° |
| 2026-05-04 00:54 | 39.34412 | -86.52272 | 14711 ft | 401 kts | 206° |
| 2026-05-04 00:54 | 39.31762 | -86.53469 | 15357 ft | 405 kts | 207° |
| 2026-05-04 00:55 | 39.29100 | -86.54672 | 16013 ft | 408 kts | 207° |
| 2026-05-04 00:55 | 39.26401 | -86.55891 | 16655 ft | 412 kts | 207° |
| 2026-05-04 00:55 | 39.23684 | -86.57117 | 17294 ft | 416 kts | 207° |
| 2026-05-04 00:55 | 39.20936 | -86.58356 | 17883 ft | 420 kts | 207° |
| 2026-05-04 00:56 | 39.18170 | -86.59604 | 18466 ft | 423 kts | 207° |
| 2026-05-04 00:56 | 39.15374 | -86.60872 | 18995 ft | 425 kts | 208° |
| 2026-05-04 00:56 | 39.12655 | -86.62329 | 19538 ft | 422 kts | 213° |
| 2026-05-04 00:56 | 39.09980 | -86.63926 | 20073 ft | 424 kts | 213° |
| 2026-05-04 00:57 | 39.07294 | -86.65543 | 20602 ft | 426 kts | 213° |
| 2026-05-04 00:57 | 39.04640 | -86.67140 | 21111 ft | 428 kts | 213° |
| 2026-05-04 00:57 | 39.01929 | -86.68764 | 21604 ft | 430 kts | 213° |
| 2026-05-04 00:57 | 38.99206 | -86.70393 | 22100 ft | 433 kts | 213° |
| 2026-05-04 00:58 | 38.96464 | -86.72032 | 22571 ft | 435 kts | 213° |
| 2026-05-04 00:58 | 38.93699 | -86.73682 | 23025 ft | 438 kts | 213° |
| 2026-05-04 00:58 | 38.90931 | -86.75330 | 23479 ft | 440 kts | 213° |
| 2026-05-04 00:58 | 38.88142 | -86.76990 | 23850 ft | 442 kts | 213° |
| 2026-05-04 00:59 | 38.85370 | -86.78639 | 24175 ft | 445 kts | 213° |
| 2026-05-04 00:59 | 38.82544 | -86.80320 | 24525 ft | 447 kts | 213° |
| 2026-05-04 00:59 | 38.79702 | -86.82009 | 24852 ft | 450 kts | 213° |
| 2026-05-04 00:59 | 38.76851 | -86.83702 | 25180 ft | 452 kts | 213° |
| 2026-05-04 01:00 | 38.73993 | -86.85398 | 25511 ft | 454 kts | 213° |
| 2026-05-04 01:00 | 38.71145 | -86.87085 | 25818 ft | 456 kts | 213° |
| 2026-05-04 01:00 | 38.68259 | -86.88793 | 26120 ft | 458 kts | 213° |
| 2026-05-04 01:00 | 38.65353 | -86.90508 | 26414 ft | 460 kts | 213° |
| 2026-05-04 01:01 | 38.62438 | -86.92230 | 26702 ft | 463 kts | 213° |
| 2026-05-04 01:01 | 38.59502 | -86.93964 | 26987 ft | 464 kts | 213° |
| 2026-05-04 01:01 | 38.56569 | -86.95693 | 27407 ft | 463 kts | 213° |
| 2026-05-04 01:01 | 38.53675 | -86.97479 | 27809 ft | 458 kts | 216° |
| 2026-05-04 01:02 | 38.51052 | -86.99622 | 28208 ft | 448 kts | 225° |
| 2026-05-04 01:02 | 38.48746 | -87.02231 | 28628 ft | 438 kts | 233° |
| 2026-05-04 01:02 | 38.46644 | -87.05021 | 29071 ft | 436 kts | 234° |
| 2026-05-04 01:02 | 38.44564 | -87.07829 | 29489 ft | 435 kts | 234° |
| 2026-05-04 01:03 | 38.42478 | -87.10635 | 29905 ft | 434 kts | 234° |
| 2026-05-04 01:03 | 38.40391 | -87.13431 | 30306 ft | 433 kts | 234° |
| 2026-05-04 01:03 | 38.38310 | -87.16212 | 30627 ft | 433 kts | 235° |
| 2026-05-04 01:03 | 38.36255 | -87.18952 | 30942 ft | 433 kts | 235° |
| 2026-05-04 01:04 | 38.34175 | -87.21719 | 31274 ft | 433 kts | 235° |
| 2026-05-04 01:04 | 38.32082 | -87.24501 | 31607 ft | 432 kts | 235° |
| 2026-05-04 01:04 | 38.29999 | -87.27268 | 31930 ft | 432 kts | 236° |
| 2026-05-04 01:04 | 38.27913 | -87.30037 | 32260 ft | 432 kts | 236° |
| 2026-05-04 01:05 | 38.25839 | -87.32786 | 32593 ft | 432 kts | 236° |
| 2026-05-04 01:05 | 38.23757 | -87.35543 | 32925 ft | 431 kts | 236° |
| 2026-05-04 01:05 | 38.21698 | -87.38270 | 33255 ft | 431 kts | 236° |
| 2026-05-04 01:05 | 38.19616 | -87.41023 | 33580 ft | 431 kts | 236° |
| 2026-05-04 01:06 | 38.17539 | -87.43768 | 33915 ft | 431 kts | 237° |
| 2026-05-04 01:06 | 38.15455 | -87.46518 | 34214 ft | 430 kts | 236° |
| 2026-05-04 01:06 | 38.13383 | -87.49250 | 34496 ft | 430 kts | 236° |
| 2026-05-04 01:06 | 38.11298 | -87.51996 | 34765 ft | 430 kts | 236° |
| 2026-05-04 01:07 | 38.09227 | -87.54723 | 35012 ft | 429 kts | 236° |
| 2026-05-04 01:07 | 38.07154 | -87.57450 | 35264 ft | 429 kts | 236° |
| 2026-05-04 01:07 | 38.05079 | -87.60179 | 35525 ft | 429 kts | 235° |
| 2026-05-04 01:07 | 38.03026 | -87.62875 | 35780 ft | 429 kts | 235° |
| 2026-05-04 01:08 | 38.00958 | -87.65590 | 35962 ft | 429 kts | 235° |
| 2026-05-04 01:08 | 37.96798 | -87.71043 | 35982 ft | 430 kts | 235° |
| 2026-05-04 01:09 | 37.92644 | -87.76502 | 35992 ft | 429 kts | 236° |
| 2026-05-04 01:09 | 37.88683 | -87.82124 | 35995 ft | 426 kts | 238° |
| 2026-05-04 01:10 | 37.84841 | -87.87779 | 35994 ft | 426 kts | 238° |
| 2026-05-04 01:10 | 37.80938 | -87.93496 | 35988 ft | 427 kts | 238° |
| 2026-05-04 01:11 | 37.77058 | -87.99126 | 35982 ft | 427 kts | 238° |
| 2026-05-04 01:11 | 37.73135 | -88.04786 | 35983 ft | 427 kts | 238° |
| 2026-05-04 01:12 | 37.69145 | -88.10325 | 35985 ft | 433 kts | 233° |
| 2026-05-04 01:12 | 37.64649 | -88.15451 | 35986 ft | 437 kts | 230° |
| 2026-05-04 01:13 | 37.59997 | -88.20444 | 35984 ft | 438 kts | 229° |
| 2026-05-04 01:13 | 37.55354 | -88.25388 | 35987 ft | 438 kts | 229° |
| 2026-05-04 01:14 | 37.50705 | -88.30360 | 35985 ft | 438 kts | 230° |
| 2026-05-04 01:14 | 37.46064 | -88.35337 | 35987 ft | 438 kts | 230° |
| 2026-05-04 01:15 | 37.41445 | -88.40289 | 35985 ft | 438 kts | 230° |
| 2026-05-04 01:15 | 37.36796 | -88.45262 | 35977 ft | 439 kts | 229° |
| 2026-05-04 01:16 | 37.32133 | -88.50245 | 35971 ft | 439 kts | 229° |
| 2026-05-04 01:16 | 37.27474 | -88.55209 | 35978 ft | 439 kts | 229° |
| 2026-05-04 01:17 | 37.22806 | -88.60174 | 35988 ft | 439 kts | 229° |
| 2026-05-04 01:17 | 37.18134 | -88.65134 | 35985 ft | 440 kts | 229° |
| 2026-05-04 01:18 | 37.13456 | -88.70092 | 35987 ft | 440 kts | 229° |
| 2026-05-04 01:18 | 37.08795 | -88.75027 | 35988 ft | 440 kts | 229° |
| 2026-05-04 01:19 | 37.04108 | -88.79980 | 35990 ft | 440 kts | 229° |
| 2026-05-04 01:19 | 36.99420 | -88.84925 | 35986 ft | 441 kts | 229° |
| 2026-05-04 01:20 | 36.94745 | -88.89849 | 35990 ft | 441 kts | 229° |
| 2026-05-04 01:20 | 36.90049 | -88.94787 | 35991 ft | 441 kts | 229° |
| 2026-05-04 01:21 | 36.85346 | -88.99724 | 35995 ft | 441 kts | 229° |
| 2026-05-04 01:21 | 36.80638 | -89.04656 | 35996 ft | 442 kts | 229° |
| 2026-05-04 01:22 | 36.75918 | -89.09595 | 36000 ft | 442 kts | 229° |
| 2026-05-04 01:22 | 36.71199 | -89.14525 | 36008 ft | 442 kts | 228° |
| 2026-05-04 01:23 | 36.66504 | -89.19420 | 36009 ft | 443 kts | 228° |
| 2026-05-04 01:23 | 36.61778 | -89.24339 | 36008 ft | 443 kts | 228° |
| 2026-05-04 01:24 | 36.57044 | -89.29258 | 36010 ft | 443 kts | 228° |
| 2026-05-04 01:24 | 36.52304 | -89.34176 | 36010 ft | 443 kts | 228° |
| 2026-05-04 01:25 | 36.47591 | -89.39057 | 36014 ft | 443 kts | 228° |
| 2026-05-04 01:25 | 36.42845 | -89.43965 | 36018 ft | 443 kts | 228° |
| 2026-05-04 01:26 | 36.38093 | -89.48870 | 36020 ft | 443 kts | 228° |
| 2026-05-04 01:26 | 36.33349 | -89.53762 | 36025 ft | 443 kts | 228° |
| 2026-05-04 01:27 | 36.28603 | -89.58647 | 36023 ft | 444 kts | 228° |
| 2026-05-04 01:27 | 36.23844 | -89.63535 | 36023 ft | 444 kts | 228° |
| 2026-05-04 01:28 | 36.19092 | -89.68408 | 36016 ft | 444 kts | 227° |
| 2026-05-04 01:28 | 36.14351 | -89.73263 | 36021 ft | 444 kts | 227° |
| 2026-05-04 01:29 | 36.09589 | -89.78132 | 36018 ft | 444 kts | 227° |
| 2026-05-04 01:29 | 36.04828 | -89.82991 | 36015 ft | 444 kts | 227° |
| 2026-05-04 01:30 | 36.00051 | -89.87860 | 36016 ft | 444 kts | 227° |
| 2026-05-04 01:30 | 35.95313 | -89.92680 | 36015 ft | 444 kts | 227° |
| 2026-05-04 01:31 | 35.90539 | -89.97530 | 36017 ft | 444 kts | 227° |
| 2026-05-04 01:31 | 35.85756 | -90.02379 | 36015 ft | 444 kts | 227° |
| 2026-05-04 01:32 | 35.81005 | -90.07189 | 36027 ft | 444 kts | 227° |
| 2026-05-04 01:32 | 35.76221 | -90.12025 | 36025 ft | 444 kts | 227° |
| 2026-05-04 01:33 | 35.71441 | -90.16850 | 36031 ft | 444 kts | 227° |
| 2026-05-04 01:33 | 35.66667 | -90.21662 | 36043 ft | 444 kts | 227° |
| 2026-05-04 01:34 | 35.61874 | -90.26483 | 36040 ft | 444 kts | 227° |
| 2026-05-04 01:34 | 35.57122 | -90.31256 | 36035 ft | 444 kts | 227° |
| 2026-05-04 01:35 | 35.52336 | -90.36056 | 36036 ft | 444 kts | 227° |
| 2026-05-04 01:35 | 35.47548 | -90.40849 | 36039 ft | 444 kts | 227° |
| 2026-05-04 01:36 | 35.42757 | -90.45638 | 36038 ft | 444 kts | 227° |
| 2026-05-04 01:36 | 35.38766 | -90.49622 | 36040 ft | 444 kts | 227° |
| 2026-05-04 01:37 | 35.33187 | -90.55182 | 36044 ft | 444 kts | 227° |
| 2026-05-04 01:37 | 35.29199 | -90.59150 | 36043 ft | 444 kts | 226° |
| 2026-05-04 01:38 | 35.24405 | -90.63915 | 36037 ft | 444 kts | 226° |
| 2026-05-04 01:38 | 35.19597 | -90.68684 | 36036 ft | 444 kts | 226° |
| 2026-05-04 01:39 | 35.14823 | -90.73412 | 36034 ft | 444 kts | 226° |
| 2026-05-04 01:39 | 35.09994 | -90.78189 | 36036 ft | 444 kts | 226° |
| 2026-05-04 01:40 | 35.05218 | -90.82904 | 36037 ft | 444 kts | 226° |
| 2026-05-04 01:40 | 35.00406 | -90.87648 | 36036 ft | 444 kts | 226° |
| 2026-05-04 01:41 | 34.95592 | -90.92387 | 36041 ft | 444 kts | 226° |
| 2026-05-04 01:41 | 34.90784 | -90.97112 | 36041 ft | 444 kts | 226° |
| 2026-05-04 01:42 | 34.85998 | -91.01809 | 36047 ft | 444 kts | 226° |
| 2026-05-04 01:42 | 34.81185 | -91.06526 | 36047 ft | 444 kts | 226° |
| 2026-05-04 01:43 | 34.76373 | -91.11232 | 36048 ft | 444 kts | 226° |
| 2026-05-04 01:43 | 34.71538 | -91.15953 | 36056 ft | 444 kts | 226° |
| 2026-05-04 01:44 | 34.66723 | -91.20649 | 36054 ft | 444 kts | 226° |
| 2026-05-04 01:44 | 34.61928 | -91.25319 | 36052 ft | 444 kts | 226° |
| 2026-05-04 01:45 | 34.57108 | -91.30006 | 36055 ft | 444 kts | 226° |
| 2026-05-04 01:45 | 34.49875 | -91.37025 | 36056 ft | 444 kts | 226° |
| 2026-05-04 01:46 | 34.45041 | -91.41707 | 36056 ft | 444 kts | 226° |
| 2026-05-04 01:46 | 34.40220 | -91.46368 | 36057 ft | 444 kts | 226° |
| 2026-05-04 01:47 | 34.35403 | -91.51018 | 36068 ft | 444 kts | 226° |
| 2026-05-04 01:47 | 34.30566 | -91.55683 | 36060 ft | 444 kts | 226° |
| 2026-05-04 01:48 | 34.25755 | -91.60315 | 36059 ft | 444 kts | 226° |
| 2026-05-04 01:48 | 34.20921 | -91.64962 | 36059 ft | 444 kts | 226° |
| 2026-05-04 01:49 | 34.16076 | -91.69613 | 36051 ft | 444 kts | 226° |
| 2026-05-04 01:49 | 34.11229 | -91.74257 | 36054 ft | 444 kts | 226° |
| 2026-05-04 01:50 | 34.06418 | -91.78861 | 36057 ft | 444 kts | 226° |
| 2026-05-04 01:50 | 34.01567 | -91.83496 | 36056 ft | 444 kts | 226° |
| 2026-05-04 01:51 | 33.96711 | -91.88130 | 36056 ft | 444 kts | 226° |
| 2026-05-04 01:51 | 33.91864 | -91.92748 | 36056 ft | 444 kts | 226° |
| 2026-05-04 01:52 | 33.87012 | -91.97363 | 36067 ft | 444 kts | 226° |
| 2026-05-04 01:52 | 33.82190 | -92.01943 | 36067 ft | 444 kts | 226° |
| 2026-05-04 01:53 | 33.77324 | -92.06558 | 36070 ft | 445 kts | 226° |
| 2026-05-04 01:53 | 33.72472 | -92.11151 | 36075 ft | 445 kts | 226° |
| 2026-05-04 01:54 | 33.67597 | -92.15760 | 36073 ft | 445 kts | 226° |
| 2026-05-04 01:54 | 33.62724 | -92.20362 | 36077 ft | 445 kts | 226° |
| 2026-05-04 01:55 | 33.57848 | -92.24959 | 36070 ft | 445 kts | 226° |
| 2026-05-04 01:55 | 33.53004 | -92.29519 | 36078 ft | 445 kts | 227° |
| 2026-05-04 01:56 | 33.48122 | -92.34108 | 36074 ft | 445 kts | 227° |
| 2026-05-04 01:56 | 33.43228 | -92.38657 | 36074 ft | 448 kts | 224° |
| 2026-05-04 01:57 | 33.40524 | -92.40624 | 36073 ft | 459 kts | 216° |
| 2026-05-04 01:57 | 33.37539 | -92.42086 | 36076 ft | 471 kts | 206° |
| 2026-05-04 01:57 | 33.31065 | -92.43680 | 36083 ft | 481 kts | 197° |
| 2026-05-04 01:58 | 33.24417 | -92.44848 | 36080 ft | 483 kts | 196° |
| 2026-05-04 01:58 | 33.17757 | -92.45986 | 36083 ft | 483 kts | 197° |
| 2026-05-04 01:59 | 33.11104 | -92.47173 | 36086 ft | 483 kts | 197° |
| 2026-05-04 01:59 | 33.04443 | -92.48388 | 36088 ft | 483 kts | 197° |
| 2026-05-04 02:00 | 32.97781 | -92.49607 | 36087 ft | 484 kts | 198° |
| 2026-05-04 02:00 | 32.91152 | -92.50817 | 36091 ft | 484 kts | 198° |
| 2026-05-04 02:01 | 32.84471 | -92.52032 | 36092 ft | 485 kts | 198° |
| 2026-05-04 02:01 | 32.77817 | -92.53239 | 36094 ft | 485 kts | 198° |
| 2026-05-04 02:02 | 32.71134 | -92.54450 | 36093 ft | 486 kts | 198° |
| 2026-05-04 02:02 | 32.64432 | -92.55664 | 36096 ft | 487 kts | 198° |
| 2026-05-04 02:03 | 32.57726 | -92.56876 | 36098 ft | 488 kts | 198° |
| 2026-05-04 02:03 | 32.51004 | -92.58089 | 36101 ft | 489 kts | 198° |
| 2026-05-04 02:04 | 32.44304 | -92.59297 | 36100 ft | 489 kts | 198° |
| 2026-05-04 02:04 | 32.37558 | -92.60513 | 36099 ft | 490 kts | 198° |
| 2026-05-04 02:05 | 32.30839 | -92.61722 | 36100 ft | 490 kts | 199° |
| 2026-05-04 02:05 | 32.24083 | -92.62935 | 36112 ft | 491 kts | 199° |
| 2026-05-04 02:06 | 32.17314 | -92.64148 | 36108 ft | 491 kts | 199° |
| 2026-05-04 02:06 | 32.10554 | -92.65357 | 36108 ft | 491 kts | 199° |
| 2026-05-04 02:07 | 32.03784 | -92.66567 | 36113 ft | 491 kts | 199° |
| 2026-05-04 02:07 | 32.00457 | -92.67330 | 36098 ft | 480 kts | 207° |
| 2026-05-04 02:07 | 31.97442 | -92.68787 | 36104 ft | 457 kts | 221° |
| 2026-05-04 02:08 | 31.94926 | -92.70915 | 36116 ft | 436 kts | 234° |
| 2026-05-04 02:08 | 31.92842 | -92.73445 | 36108 ft | 428 kts | 239° |
| 2026-05-04 02:08 | 31.88881 | -92.78642 | 36114 ft | 428 kts | 239° |
| 2026-05-04 02:09 | 31.84891 | -92.83852 | 36114 ft | 428 kts | 239° |
| 2026-05-04 02:09 | 31.80891 | -92.89041 | 36114 ft | 428 kts | 239° |
| 2026-05-04 02:10 | 31.76911 | -92.94192 | 36114 ft | 427 kts | 239° |
| 2026-05-04 02:10 | 31.72911 | -92.99359 | 36121 ft | 427 kts | 239° |
| 2026-05-04 02:11 | 31.68911 | -93.04520 | 36118 ft | 426 kts | 239° |
| 2026-05-04 02:11 | 31.64938 | -93.09637 | 36131 ft | 426 kts | 239° |
| 2026-05-04 02:12 | 31.60940 | -93.14781 | 36113 ft | 426 kts | 239° |
| 2026-05-04 02:12 | 31.56944 | -93.19915 | 36115 ft | 425 kts | 239° |
| 2026-05-04 02:13 | 31.52958 | -93.25031 | 36112 ft | 425 kts | 239° |
| 2026-05-04 02:13 | 31.48981 | -93.30126 | 36115 ft | 424 kts | 239° |
| 2026-05-04 02:14 | 31.44984 | -93.35240 | 36112 ft | 424 kts | 239° |
| 2026-05-04 02:14 | 31.41012 | -93.40319 | 36111 ft | 423 kts | 239° |
| 2026-05-04 02:15 | 31.37021 | -93.45413 | 36108 ft | 423 kts | 239° |
| 2026-05-04 02:15 | 31.33067 | -93.50451 | 36111 ft | 422 kts | 239° |
| 2026-05-04 02:16 | 31.29089 | -93.55513 | 36108 ft | 422 kts | 239° |
| 2026-05-04 02:16 | 31.25114 | -93.60566 | 36110 ft | 421 kts | 239° |
| 2026-05-04 02:17 | 31.21145 | -93.65605 | 36113 ft | 421 kts | 239° |
| 2026-05-04 02:17 | 31.17196 | -93.70612 | 36114 ft | 421 kts | 239° |
| 2026-05-04 02:18 | 31.13228 | -93.75636 | 36114 ft | 420 kts | 239° |
| 2026-05-04 02:18 | 31.11250 | -93.78136 | 35988 ft | 418 kts | 239° |
| 2026-05-04 02:18 | 31.09281 | -93.80620 | 35259 ft | 414 kts | 239° |
| 2026-05-04 02:19 | 31.07325 | -93.83090 | 34289 ft | 414 kts | 238° |
| 2026-05-04 02:19 | 31.05373 | -93.85557 | 33287 ft | 414 kts | 238° |
| 2026-05-04 02:19 | 31.03420 | -93.88020 | 32403 ft | 410 kts | 238° |
| 2026-05-04 02:19 | 31.01487 | -93.90455 | 31517 ft | 408 kts | 238° |
| 2026-05-04 02:20 | 30.99553 | -93.92897 | 30583 ft | 412 kts | 238° |
| 2026-05-04 02:20 | 30.97587 | -93.95383 | 29623 ft | 420 kts | 237° |
| 2026-05-04 02:20 | 30.95616 | -93.97871 | 28746 ft | 425 kts | 236° |
| 2026-05-04 02:20 | 30.93597 | -94.00409 | 27857 ft | 428 kts | 236° |
| 2026-05-04 02:21 | 30.91561 | -94.02964 | 26979 ft | 431 kts | 235° |
| 2026-05-04 02:21 | 30.89518 | -94.05524 | 26438 ft | 431 kts | 234° |
| 2026-05-04 02:21 | 30.87489 | -94.08061 | 26109 ft | 418 kts | 234° |
| 2026-05-04 02:21 | 30.85557 | -94.10460 | 25988 ft | 393 kts | 234° |
| 2026-05-04 02:22 | 30.84340 | -94.11974 | 25915 ft | 379 kts | 235° |
| 2026-05-04 02:22 | 30.82030 | -94.14860 | 25763 ft | 361 kts | 235° |
| 2026-05-04 02:22 | 30.80318 | -94.17019 | 25602 ft | 365 kts | 235° |
| 2026-05-04 02:22 | 30.79152 | -94.18488 | 25479 ft | 366 kts | 235° |
| 2026-05-04 02:23 | 30.77432 | -94.20650 | 24921 ft | 369 kts | 234° |
| 2026-05-04 02:23 | 30.75681 | -94.22845 | 24415 ft | 369 kts | 234° |
| 2026-05-04 02:23 | 30.73933 | -94.25032 | 23929 ft | 369 kts | 233° |
| 2026-05-04 02:23 | 30.72184 | -94.27219 | 23402 ft | 369 kts | 233° |
| 2026-05-04 02:24 | 30.70435 | -94.29403 | 22884 ft | 367 kts | 233° |
| 2026-05-04 02:24 | 30.68699 | -94.31571 | 22391 ft | 365 kts | 233° |
| 2026-05-04 02:24 | 30.66990 | -94.33704 | 21909 ft | 364 kts | 232° |
| 2026-05-04 02:24 | 30.65269 | -94.35850 | 21421 ft | 362 kts | 232° |
| 2026-05-04 02:25 | 30.63553 | -94.37990 | 20944 ft | 361 kts | 232° |
| 2026-05-04 02:25 | 30.61844 | -94.40121 | 20452 ft | 360 kts | 232° |
| 2026-05-04 02:25 | 30.60133 | -94.42255 | 19965 ft | 360 kts | 232° |
| 2026-05-04 02:25 | 30.58424 | -94.44383 | 19461 ft | 360 kts | 232° |
| 2026-05-04 02:26 | 30.56735 | -94.46485 | 19006 ft | 360 kts | 231° |
| 2026-05-04 02:26 | 30.55029 | -94.48608 | 18522 ft | 359 kts | 231° |
| 2026-05-04 02:26 | 30.53345 | -94.50771 | 17965 ft | 358 kts | 234° |
| 2026-05-04 02:26 | 30.51790 | -94.53007 | 17427 ft | 355 kts | 235° |
| 2026-05-04 02:27 | 30.50262 | -94.55262 | 16861 ft | 354 kts | 235° |
| 2026-05-04 02:27 | 30.48747 | -94.57492 | 16368 ft | 351 kts | 234° |
| 2026-05-04 02:27 | 30.47234 | -94.59714 | 15891 ft | 348 kts | 234° |
| 2026-05-04 02:27 | 30.45763 | -94.61878 | 15421 ft | 345 kts | 234° |
| 2026-05-04 02:28 | 30.44282 | -94.64052 | 14934 ft | 343 kts | 233° |
| 2026-05-04 02:28 | 30.42802 | -94.66218 | 14447 ft | 341 kts | 233° |
| 2026-05-04 02:28 | 30.41336 | -94.68367 | 13974 ft | 338 kts | 233° |
| 2026-05-04 02:28 | 30.39848 | -94.70482 | 13491 ft | 336 kts | 231° |
| 2026-05-04 02:29 | 30.38338 | -94.72490 | 13034 ft | 332 kts | 230° |
| 2026-05-04 02:29 | 30.36821 | -94.74487 | 12579 ft | 329 kts | 230° |
| 2026-05-04 02:29 | 30.35311 | -94.76475 | 12222 ft | 323 kts | 229° |
| 2026-05-04 02:29 | 30.33878 | -94.78372 | 12143 ft | 300 kts | 229° |
| 2026-05-04 02:30 | 30.32562 | -94.80116 | 12059 ft | 277 kts | 230° |
| 2026-05-04 02:30 | 30.31320 | -94.81753 | 11817 ft | 270 kts | 229° |
| 2026-05-04 02:30 | 30.30075 | -94.83402 | 11431 ft | 273 kts | 229° |
| 2026-05-04 02:30 | 30.28833 | -94.85054 | 11051 ft | 271 kts | 230° |
| 2026-05-04 02:31 | 30.27618 | -94.86714 | 10818 ft | 280 kts | 230° |
| 2026-05-04 02:31 | 30.26351 | -94.88465 | 10805 ft | 285 kts | 230° |
| 2026-05-04 02:31 | 30.25087 | -94.90221 | 10515 ft | 281 kts | 230° |
| 2026-05-04 02:31 | 30.23830 | -94.91963 | 10258 ft | 285 kts | 230° |
| 2026-05-04 02:32 | 30.22569 | -94.93713 | 10018 ft | 279 kts | 230° |
| 2026-05-04 02:32 | 30.21324 | -94.95440 | 9766 ft | 283 kts | 230° |
| 2026-05-04 02:32 | 30.20084 | -94.97161 | 9591 ft | 278 kts | 230° |
| 2026-05-04 02:32 | 30.18842 | -94.98874 | 9414 ft | 281 kts | 230° |
| 2026-05-04 02:33 | 30.17591 | -95.00598 | 9258 ft | 276 kts | 230° |
| 2026-05-04 02:33 | 30.16348 | -95.02317 | 9225 ft | 280 kts | 230° |
| 2026-05-04 02:33 | 30.15108 | -95.04030 | 8963 ft | 276 kts | 231° |
| 2026-05-04 02:33 | 30.13885 | -95.05731 | 8834 ft | 278 kts | 231° |
| 2026-05-04 02:34 | 30.12649 | -95.07409 | 8666 ft | 270 kts | 229° |
| 2026-05-04 02:34 | 30.11399 | -95.09024 | 8441 ft | 269 kts | 229° |
| 2026-05-04 02:34 | 30.10137 | -95.10633 | 8272 ft | 269 kts | 228° |
| 2026-05-04 02:34 | 30.08876 | -95.12231 | 8082 ft | 269 kts | 228° |
| 2026-05-04 02:35 | 30.07620 | -95.13831 | 7909 ft | 269 kts | 228° |
| 2026-05-04 02:35 | 30.06361 | -95.15432 | 7709 ft | 269 kts | 229° |
| 2026-05-04 02:35 | 30.05109 | -95.17034 | 7553 ft | 268 kts | 228° |
| 2026-05-04 02:35 | 30.03857 | -95.18627 | 7366 ft | 267 kts | 228° |
| 2026-05-04 02:36 | 30.02607 | -95.20209 | 7194 ft | 267 kts | 228° |
| 2026-05-04 02:36 | 30.01352 | -95.21779 | 7011 ft | 266 kts | 228° |
| 2026-05-04 02:36 | 30.00129 | -95.23343 | 6851 ft | 265 kts | 229° |
| 2026-05-04 02:36 | 29.98894 | -95.24926 | 6660 ft | 264 kts | 229° |
| 2026-05-04 02:37 | 29.97668 | -95.26493 | 6478 ft | 263 kts | 229° |
| 2026-05-04 02:37 | 29.96440 | -95.28071 | 6315 ft | 263 kts | 229° |
| 2026-05-04 02:37 | 29.95211 | -95.29632 | 6128 ft | 262 kts | 228° |
| 2026-05-04 02:37 | 29.93986 | -95.31193 | 6015 ft | 262 kts | 228° |
| 2026-05-04 02:38 | 29.92768 | -95.32750 | 6004 ft | 262 kts | 228° |
| 2026-05-04 02:38 | 29.91542 | -95.34307 | 5999 ft | 262 kts | 228° |
| 2026-05-04 02:38 | 29.90321 | -95.35873 | 6002 ft | 261 kts | 230° |
| 2026-05-04 02:38 | 29.89410 | -95.37636 | 5996 ft | 261 kts | 251° |
| 2026-05-04 02:39 | 29.89163 | -95.39691 | 6007 ft | 260 kts | 269° |
| 2026-05-04 02:39 | 29.89179 | -95.41771 | 6005 ft | 259 kts | 271° |
| 2026-05-04 02:39 | 29.89211 | -95.43820 | 5991 ft | 246 kts | 271° |
| 2026-05-04 02:39 | 29.89225 | -95.45721 | 6000 ft | 231 kts | 270° |
| 2026-05-04 02:40 | 29.89196 | -95.47569 | 6005 ft | 231 kts | 269° |
| 2026-05-04 02:40 | 29.89168 | -95.49420 | 5998 ft | 231 kts | 269° |
| 2026-05-04 02:40 | 29.89137 | -95.51273 | 6005 ft | 231 kts | 269° |
| 2026-05-04 02:40 | 29.89090 | -95.53116 | 6005 ft | 230 kts | 268° |
| 2026-05-04 02:41 | 29.89043 | -95.54941 | 5963 ft | 229 kts | 269° |
| 2026-05-04 02:41 | 29.89003 | -95.56761 | 5667 ft | 227 kts | 269° |
| 2026-05-04 02:41 | 29.88965 | -95.58600 | 5267 ft | 229 kts | 268° |
| 2026-05-04 02:41 | 29.88925 | -95.60441 | 4862 ft | 230 kts | 268° |
| 2026-05-04 02:42 | 29.88887 | -95.62289 | 4478 ft | 230 kts | 268° |
| 2026-05-04 02:42 | 29.88888 | -95.64131 | 4070 ft | 230 kts | 276° |
| 2026-05-04 02:42 | 29.89487 | -95.65817 | 3695 ft | 233 kts | 307° |
| 2026-05-04 02:42 | 29.90798 | -95.66917 | 3293 ft | 236 kts | 340° |
| 2026-05-04 02:43 | 29.92416 | -95.67176 | 3041 ft | 234 kts | 0° |
| 2026-05-04 02:43 | 29.94040 | -95.67131 | 2989 ft | 235 kts | 2° |
| 2026-05-04 02:43 | 29.95656 | -95.66892 | 2984 ft | 234 kts | 21° |
| 2026-05-04 02:43 | 29.96944 | -95.65837 | 2993 ft | 230 kts | 52° |
| 2026-05-04 02:44 | 29.97827 | -95.64305 | 3009 ft | 229 kts | 62° |
| 2026-05-04 02:44 | 29.98623 | -95.62719 | 2989 ft | 229 kts | 63° |
| 2026-05-04 02:44 | 29.99220 | -95.61026 | 2999 ft | 227 kts | 79° |
| 2026-05-04 02:44 | 29.99365 | -95.59219 | 3004 ft | 225 kts | 93° |
| 2026-05-04 02:45 | 29.99323 | -95.57417 | 3001 ft | 224 kts | 93° |
| 2026-05-04 02:45 | 29.99304 | -95.55621 | 3005 ft | 225 kts | 93° |
| 2026-05-04 02:45 | 29.99301 | -95.53815 | 3002 ft | 225 kts | 92° |
| 2026-05-04 02:45 | 29.99313 | -95.52027 | 2939 ft | 224 kts | 91° |
| 2026-05-04 02:46 | 29.99334 | -95.50240 | 2635 ft | 221 kts | 92° |
| 2026-05-04 02:46 | 29.99328 | -95.48474 | 2325 ft | 219 kts | 93° |
| 2026-05-04 02:46 | 29.99328 | -95.46731 | 2047 ft | 214 kts | 93° |
| 2026-05-04 02:46 | 29.99330 | -95.45073 | 1734 ft | 199 kts | 94° |
| 2026-05-04 02:47 | 29.99334 | -95.43527 | 1464 ft | 186 kts | 94° |
| 2026-05-04 02:47 | 29.99335 | -95.42100 | 1252 ft | 171 kts | 94° |
| 2026-05-04 02:47 | 29.99337 | -95.40786 | 1027 ft | 154 kts | 95° |
| 2026-05-04 02:47 | 29.99335 | -95.39614 | 828 ft | 141 kts | 94° |
| 2026-05-04 02:48 | 29.99337 | -95.38520 | 646 ft | 131 kts | 94° |
| 2026-05-04 02:48 | 29.99335 | -95.37500 | 449 ft | 122 kts | 93° |
| 2026-05-04 02:48 | 29.99335 | -95.36544 | 303 ft | 117 kts | 89° |
| 2026-05-04 02:48 | 29.99332 | -95.35618 | 170 ft | 114 kts | 88° |
| 2026-05-04 02:49 | 29.99345 | -95.34739 | 109 ft | 107 kts | 89° |
| 2026-05-04 02:49 | 29.99334 | -95.34033 | 107 ft | 65 kts | 102° |
| 2026-05-04 02:49 | 29.99237 | -95.33794 | 108 ft | 2 kts | 120° |
| 2026-05-04 02:50 | 29.99237 | -95.33793 | 108 ft | 0 kts | 120° |
| 2026-05-04 02:51 | 29.99230 | -95.33778 | 108 ft | 9 kts | 120° |
| 2026-05-04 02:51 | 29.99187 | -95.33800 | 108 ft | 12 kts | 248° |
| 2026-05-04 02:51 | 29.99176 | -95.33935 | 108 ft | 22 kts | 270° |
| 2026-05-04 02:51 | 29.99178 | -95.34150 | 108 ft | 31 kts | 270° |
| 2026-05-04 02:52 | 29.99180 | -95.34425 | 108 ft | 37 kts | 270° |
| 2026-05-04 02:52 | 29.99178 | -95.34713 | 109 ft | 36 kts | 269° |
| 2026-05-04 02:52 | 29.99178 | -95.34979 | 109 ft | 29 kts | 269° |
| 2026-05-04 02:52 | 29.99176 | -95.35148 | 109 ft | 15 kts | 268° |
| 2026-05-04 02:53 | 29.99173 | -95.35264 | 109 ft | 14 kts | 272° |
| 2026-05-04 02:53 | 29.99176 | -95.35376 | 109 ft | 14 kts | 270° |
| 2026-05-04 02:53 | 29.99139 | -95.35466 | 109 ft | 12 kts | 209° |
| 2026-05-04 02:53 | 29.99058 | -95.35480 | 109 ft | 12 kts | 182° |
| 2026-05-04 02:54 | 29.98979 | -95.35483 | 109 ft | 11 kts | 182° |
| 2026-05-04 02:54 | 29.98901 | -95.35482 | 109 ft | 11 kts | 178° |
| 2026-05-04 02:54 | 29.98827 | -95.35467 | 109 ft | 11 kts | 161° |
| 2026-05-04 02:54 | 29.98760 | -95.35431 | 109 ft | 10 kts | 151° |
| 2026-05-04 02:55 | 29.98618 | -95.35345 | 109 ft | 13 kts | 151° |
| 2026-05-04 02:55 | 29.98539 | -95.35297 | 108 ft | 13 kts | 152° |
| 2026-05-04 02:55 | 29.98459 | -95.35246 | 108 ft | 14 kts | 150° |
| 2026-05-04 02:56 | 29.98364 | -95.35185 | 108 ft | 18 kts | 151° |
| 2026-05-04 02:56 | 29.98250 | -95.35112 | 108 ft | 19 kts | 150° |
| 2026-05-04 02:56 | 29.98138 | -95.35040 | 108 ft | 14 kts | 150° |
| 2026-05-04 02:56 | 29.98127 | -95.35033 | 108 ft | 1 kts | 152° |
| 2026-05-04 02:57 | 29.98121 | -95.35030 | 108 ft | 1 kts | 152° |
| 2026-05-04 02:57 | 29.98081 | -95.35006 | 107 ft | 13 kts | 152° |
| 2026-05-04 02:57 | 29.97972 | -95.34941 | 107 ft | 19 kts | 154° |
| 2026-05-04 02:57 | 29.97854 | -95.34870 | 107 ft | 19 kts | 152° |
| 2026-05-04 02:58 | 29.97743 | -95.34791 | 106 ft | 18 kts | 132° |
| 2026-05-04 02:58 | 29.97743 | -95.34696 | 106 ft | 0 kts | 66° |
| 2026-05-04 02:58 | 29.97743 | -95.34695 | 106 ft | 0 kts | 66° |
| 2026-05-04 02:58 | 29.97745 | -95.34690 | 106 ft | 4 kts | 64° |
| 2026-05-04 02:59 | 29.97760 | -95.34650 | 106 ft | 5 kts | 79° |
| 2026-05-04 02:59 | 29.97758 | -95.34608 | 106 ft | 5 kts | 95° |
| 2026-05-04 02:59 | 29.97770 | -95.34586 | 104 ft | 2 kts | 38° |
| 2026-05-04 02:59 | 29.97780 | -95.34584 | 106 ft | 2 kts | 5° |
| 2026-05-04 03:00 | 29.97784 | -95.34585 | 106 ft | 0 kts | 1° |
| 2026-05-04 03:00 | 29.97808 | -95.34585 | 106 ft | 5 kts | 358° |
| 2026-05-04 03:00 | 29.97839 | -95.34586 | 101 ft | 4 kts | 360° |
| 2026-05-04 03:00 | 29.97850 | -95.34586 | 107 ft | 0 kts | 360° |